SKMR

Details ICAO SKMR (MTR)
Name LOS GARZONES
Region Colombia
Timezone America/Bogota (UTC-5.0)
Plans Departing 13
Arriving 24
Stats Elevation 36 ft / 11 m (AMSL)
Location 8.823745° -75.825832°
Runways 1
Magnetic Variation 6.767° W
Sunrise 2017-12-14 11:11:05 UTC / 2017-12-14 06:11:05 Local
Sunset 2017-12-14 22:47:52 UTC / 2017-12-14 17:47:52 Local
Advertisement - Login to hide

Runways

ID Width Length Bearing (true) Bearing (mag) Surface Threshold Offset Overrun Length
14 115 ft / 35 m 6,302 ft / 1,921 m 137.94° 144.71° Asphalt 0 ft / 0 m 0 ft / 0 m
32 115 ft / 35 m 6,302 ft / 1,921 m 317.94° 324.71° Asphalt 0 ft / 0 m 0 ft / 0 m

Map

Weather


0- 5 10 15 20 25 30 35+ Temperature / ° C

Clouds and Precipitation
Forecast for 2017-12-14 18:00 UTC. Updated 16 minutes ago

Ground ~20,000 ft ~40,000 ft Winds

METAR

SKMR 141700Z 00000KT 9999 BKN020 32/23 A2983

TAF

Not found

Frequencies

Tower 127.50 MHz MONTERIA FIS
Tower 118.10 MHz TWR
Warning: Do not use this data for real-world aviation or navigation. No guarantee of current accuracy is given.